createdAt,value
2019-05-19T00:00:17.413Z,99234.13
2019-05-19T00:03:23.503Z,99231.54
2019-05-19T00:06:30.133Z,99221.95
2019-05-19T00:09:33.695Z,99226.66
2019-05-19T00:12:37.257Z,99223.67
2019-05-19T00:15:40.871Z,99221.70
2019-05-19T00:18:44.498Z,99215.89
2019-05-19T00:21:49.689Z,99216.58
2019-05-19T00:24:56.187Z,99219.30
2019-05-19T00:28:01.880Z,99216.58
2019-05-19T00:31:07.034Z,99211.66
2019-05-19T00:34:10.571Z,99212.80
2019-05-19T00:37:14.145Z,99207.30
2019-05-19T00:40:20.358Z,99211.48
2019-05-19T00:43:24.095Z,99209.28
2019-05-19T00:46:27.696Z,99218.20
2019-05-19T00:49:40.997Z,99212.09
2019-05-19T00:52:36.638Z,99203.01
2019-05-19T00:55:42.383Z,99202.24
2019-05-19T00:58:46.674Z,99200.64
2019-05-19T01:01:53.122Z,99196.91
2019-05-19T01:04:56.699Z,99199.94
2019-05-19T01:08:00.253Z,99199.77
2019-05-19T01:11:05.649Z,99192.78
2019-05-19T01:14:09.259Z,99193.09
2019-05-19T01:17:12.854Z,99194.16
2019-05-19T01:20:16.698Z,99192.84
2019-05-19T01:23:20.286Z,99190.84
2019-05-19T01:26:23.911Z,99192.37
2019-05-19T01:29:29.046Z,99190.48
2019-05-19T01:32:34.118Z,99189.98
2019-05-19T01:35:39.269Z,99187.25
2019-05-19T01:38:42.828Z,99188.48
2019-05-19T01:41:46.456Z,99195.50
2019-05-19T01:44:51.617Z,99191.97
2019-05-19T01:47:55.185Z,99190.27
2019-05-19T01:51:01.507Z,99187.88
2019-05-19T01:54:07.272Z,99192.09
2019-05-19T01:57:12.165Z,99188.73
2019-05-19T02:00:16.359Z,99179.67
2019-05-19T02:03:22.481Z,99187.31
2019-05-19T02:06:27.721Z,99184.66
2019-05-19T02:09:31.326Z,99183.45
2019-05-19T02:12:37.719Z,99180.64
2019-05-19T02:15:41.256Z,99184.20
2019-05-19T02:18:46.385Z,99196.16
2019-05-19T02:21:49.913Z,99191.75
2019-05-19T02:24:56.669Z,99183.16
2019-05-19T02:28:02.313Z,99186.88
2019-05-19T02:31:05.548Z,99185.73
2019-05-19T02:34:10.611Z,99184.80
2019-05-19T02:37:16.993Z,99182.70
2019-05-19T02:40:21.034Z,99188.70
2019-05-19T02:43:27.689Z,99183.90
2019-05-19T02:46:33.276Z,99187.66
2019-05-19T02:49:39.474Z,99184.99
2019-05-19T02:52:45.394Z,99193.05
2019-05-19T02:55:51.566Z,99195.72
2019-05-19T02:58:56.195Z,99188.97
2019-05-19T03:02:02.934Z,99191.03
2019-05-19T03:05:10.811Z,99187.48
2019-05-19T03:08:14.459Z,99187.72
2019-05-19T03:11:18.030Z,99186.26
2019-05-19T03:14:21.639Z,99188.59
2019-05-19T03:17:27.138Z,99187.98
2019-05-19T03:20:33.620Z,99190.81
2019-05-19T03:23:41.370Z,99193.10
2019-05-19T03:26:46.515Z,99187.16
2019-05-19T03:29:51.734Z,99194.30
2019-05-19T03:32:56.897Z,99187.51
2019-05-19T03:36:00.480Z,99192.94
2019-05-19T03:39:07.514Z,99192.86
2019-05-19T03:42:14.191Z,99187.64
2019-05-19T03:45:19.213Z,99194.78
2019-05-19T03:48:22.759Z,99192.92
2019-05-19T03:51:30.848Z,99191.11
2019-05-19T03:54:31.702Z,99190.36
2019-05-19T03:57:36.874Z,99189.60
2019-05-19T04:00:44.477Z,99192.80
2019-05-19T04:03:48.303Z,99195.32
2019-05-19T04:06:51.865Z,99196.59
2019-05-19T04:09:57.000Z,99196.75
2019-05-19T04:16:14.635Z,99197.30
2019-05-19T04:19:18.182Z,99194.19
2019-05-19T04:22:23.433Z,99195.20
2019-05-19T04:25:27.038Z,99188.34
2019-05-19T04:28:33.659Z,99191.85
2019-05-19T04:31:38.946Z,99190.00
2019-05-19T04:34:49.501Z,99193.23
2019-05-19T04:37:53.061Z,99194.32
2019-05-19T04:40:56.800Z,99198.44
2019-05-19T04:44:00.417Z,99194.51
2019-05-19T04:47:14.385Z,99196.67
2019-05-19T04:50:16.613Z,99200.32
2019-05-19T04:53:23.532Z,99195.49
2019-05-19T04:56:27.183Z,99201.58
2019-05-19T04:59:30.886Z,99198.05
2019-05-19T05:02:36.410Z,99193.23
2019-05-19T05:05:42.854Z,99192.78
2019-05-19T05:08:48.285Z,99195.18
2019-05-19T05:11:52.174Z,99200.04
2019-05-19T05:14:59.831Z,99200.23
2019-05-19T05:18:03.649Z,99206.74
2019-05-19T05:21:10.093Z,99215.34
2019-05-19T05:24:13.762Z,99204.64
2019-05-19T05:27:17.385Z,99197.05
2019-05-19T05:30:21.033Z,99204.87
2019-05-19T05:33:24.656Z,99209.05
2019-05-19T05:36:28.469Z,99206.66
2019-05-19T05:39:32.193Z,99198.41
2019-05-19T05:42:35.917Z,99206.38
2019-05-19T05:45:39.562Z,99205.25
2019-05-19T05:48:43.240Z,99193.45
2019-05-19T05:51:46.915Z,99201.36
2019-05-19T05:54:50.622Z,99203.36
2019-05-19T05:57:54.287Z,99200.62
2019-05-19T06:00:57.987Z,99201.41
2019-05-19T06:04:01.668Z,99198.70
2019-05-19T06:07:05.367Z,99202.53
2019-05-19T06:10:09.389Z,99198.77
2019-05-19T06:13:15.264Z,99191.75
2019-05-19T06:16:21.455Z,99202.56
2019-05-19T06:19:25.377Z,99202.63
2019-05-19T06:22:29.056Z,99198.61
2019-05-19T06:25:32.782Z,99196.98
2019-05-19T06:28:36.390Z,99200.75
2019-05-19T06:31:40.047Z,99199.00
2019-05-19T06:34:43.688Z,99188.25
2019-05-19T06:37:47.389Z,99189.00
2019-05-19T06:40:51.219Z,99191.09
2019-05-19T06:43:54.848Z,99185.64
2019-05-19T06:46:58.517Z,99178.47
2019-05-19T06:50:02.411Z,99181.59
2019-05-19T06:53:14.132Z,99185.70
2019-05-19T06:56:15.842Z,99181.78
2019-05-19T06:59:16.827Z,99183.84
2019-05-19T07:02:20.695Z,99187.11
2019-05-19T07:05:24.505Z,99176.66
2019-05-19T07:08:28.211Z,99178.00
2019-05-19T07:11:31.882Z,99170.02
2019-05-19T07:14:35.556Z,99172.46
2019-05-19T07:17:39.279Z,99162.30
2019-05-19T07:20:45.346Z,99160.97
2019-05-19T07:23:49.013Z,99160.25
2019-05-19T07:26:52.680Z,99170.75
2019-05-19T07:29:56.303Z,99153.59
2019-05-19T07:33:00.258Z,99150.58
2019-05-19T07:36:03.890Z,99159.66
2019-05-19T07:39:08.193Z,99151.16
2019-05-19T07:42:11.870Z,99147.20
2019-05-19T07:45:15.783Z,99148.37
2019-05-19T07:48:19.507Z,99147.63
2019-05-19T07:51:23.179Z,99151.18
2019-05-19T07:54:26.850Z,99149.02
2019-05-19T07:57:30.529Z,99147.48
2019-05-19T08:00:34.160Z,99145.51
2019-05-19T08:03:39.532Z,99145.95
2019-05-19T08:06:43.292Z,99148.09
2019-05-19T08:09:46.969Z,99149.55
2019-05-19T08:12:50.717Z,99138.52
2019-05-19T08:15:54.393Z,99137.18
2019-05-19T08:18:58.032Z,99140.77
2019-05-19T08:22:01.691Z,99133.59
2019-05-19T08:25:08.609Z,99139.59
2019-05-19T08:28:13.951Z,99137.72
2019-05-19T08:31:17.640Z,99143.80
2019-05-19T08:34:21.374Z,99136.22
2019-05-19T08:37:24.998Z,99140.84
2019-05-19T08:40:28.646Z,99136.12
2019-05-19T08:43:32.349Z,99139.60
2019-05-19T08:46:36.382Z,99129.23
2019-05-19T08:49:42.919Z,99131.73
2019-05-19T08:52:46.719Z,99132.25
2019-05-19T08:55:50.384Z,99129.95
2019-05-19T08:58:55.615Z,99140.44
2019-05-19T09:02:00.959Z,99141.41
2019-05-19T09:05:06.295Z,99132.09
2019-05-19T09:08:10.012Z,99129.02
2019-05-19T09:11:13.672Z,99134.32
2019-05-19T09:14:17.299Z,99134.03
2019-05-19T09:17:20.960Z,99130.48
2019-05-19T09:20:24.602Z,99124.05
2019-05-19T09:23:28.306Z,99118.44
2019-05-19T09:26:31.934Z,99125.80
2019-05-19T09:29:35.646Z,99122.49
2019-05-19T09:32:39.320Z,99110.33
2019-05-19T09:35:43.057Z,99114.74
2019-05-19T09:38:46.814Z,99111.18
2019-05-19T09:41:50.647Z,99117.44
2019-05-19T09:44:54.347Z,99112.66
2019-05-19T09:47:57.967Z,99120.23
2019-05-19T09:51:01.613Z,99115.84
2019-05-19T09:54:05.264Z,99123.14
2019-05-19T09:57:08.924Z,99119.22
2019-05-19T10:00:12.885Z,99108.19
2019-05-19T10:03:19.536Z,99101.76
2019-05-19T10:06:22.033Z,99108.45
2019-05-19T10:09:47.503Z,99103.64
2019-05-19T10:12:51.181Z,99101.86
2019-05-19T10:15:54.867Z,99103.98
2019-05-19T10:18:58.508Z,99107.78
2019-05-19T10:22:02.180Z,99101.76
2019-05-19T10:25:20.955Z,99094.59
2019-05-19T10:28:13.474Z,99097.59
2019-05-19T10:31:17.113Z,99087.28
2019-05-19T10:34:20.886Z,99092.01
2019-05-19T10:37:24.506Z,99087.10
2019-05-19T10:40:28.393Z,99076.41
2019-05-19T10:43:32.110Z,99079.16
2019-05-19T10:46:35.753Z,99084.77
2019-05-19T10:49:39.392Z,99084.45
2019-05-19T10:52:43.149Z,99074.42
2019-05-19T10:55:46.772Z,99071.51
2019-05-19T10:58:50.518Z,99085.66
2019-05-19T11:01:54.150Z,99077.30
2019-05-19T11:04:57.832Z,99071.46
2019-05-19T11:08:01.459Z,99072.31
2019-05-19T11:11:05.141Z,99063.41
2019-05-19T11:14:08.855Z,99081.06
2019-05-19T11:17:12.526Z,99070.22
2019-05-19T11:20:16.267Z,99059.20
2019-05-19T11:23:19.981Z,99063.98
2019-05-19T11:26:23.696Z,99064.37
2019-05-19T11:29:27.394Z,99063.91
2019-05-19T11:32:31.149Z,99061.61
2019-05-19T11:35:34.840Z,99061.59
2019-05-19T11:38:38.514Z,99055.50
2019-05-19T11:41:42.219Z,99065.92
2019-05-19T11:44:45.879Z,99058.03
2019-05-19T11:47:49.513Z,99060.72
2019-05-19T11:50:53.222Z,99056.27
2019-05-19T11:53:56.892Z,99058.47
2019-05-19T11:57:00.554Z,99049.56
2019-05-19T12:00:05.999Z,99059.02
2019-05-19T12:03:09.733Z,99052.07
2019-05-19T12:06:13.419Z,99048.36
2019-05-19T12:09:17.054Z,99054.28
2019-05-19T12:12:26.498Z,99048.65
2019-05-19T12:15:31.391Z,99036.84
2019-05-19T12:18:34.974Z,99041.89
2019-05-19T12:21:38.618Z,99034.89
2019-05-19T12:24:42.310Z,99039.09
2019-05-19T12:27:46.412Z,99046.16
2019-05-19T12:30:50.080Z,99037.08
2019-05-19T12:33:53.774Z,99031.52
2019-05-19T12:36:57.548Z,99034.76
2019-05-19T12:40:02.346Z,99040.13
2019-05-19T12:43:07.523Z,99042.42
2019-05-19T12:46:16.468Z,99025.20
2019-05-19T12:49:18.153Z,99028.59
2019-05-19T12:52:21.854Z,99035.45
2019-05-19T12:55:25.518Z,99039.44
2019-05-19T12:58:29.173Z,99029.98
2019-05-19T13:01:32.888Z,99023.60
2019-05-19T13:04:36.538Z,99018.17
2019-05-19T13:07:40.179Z,99005.13
2019-05-19T13:10:43.902Z,99012.34
2019-05-19T13:13:47.555Z,99015.36
2019-05-19T13:16:51.205Z,98997.55
2019-05-19T13:19:54.921Z,98995.17
2019-05-19T13:22:59.693Z,98996.41
2019-05-19T13:26:03.465Z,99010.80
2019-05-19T13:29:09.578Z,99009.38
2019-05-19T13:32:14.164Z,98993.56
2019-05-19T13:35:17.932Z,99010.19
2019-05-19T13:38:21.687Z,99002.66
2019-05-19T13:41:25.317Z,99003.55
2019-05-19T13:44:29.872Z,98988.11
2019-05-19T13:47:33.686Z,98992.70
2019-05-19T13:50:37.385Z,98983.84
2019-05-19T13:53:41.038Z,98976.77
2019-05-19T13:56:44.691Z,98983.75
2019-05-19T13:59:48.415Z,98985.78
2019-05-19T14:02:52.045Z,98977.83
2019-05-19T14:05:55.719Z,98986.91
2019-05-19T14:08:59.352Z,98974.41
2019-05-19T14:12:02.984Z,98972.33
2019-05-19T14:15:08.040Z,98965.41
2019-05-19T14:18:11.706Z,98962.81
2019-05-19T14:21:15.327Z,98974.99
2019-05-19T14:24:19.215Z,98974.61
2019-05-19T14:27:30.610Z,98971.00
2019-05-19T14:30:28.267Z,98963.34
2019-05-19T14:33:31.938Z,98957.52
2019-05-19T14:36:35.585Z,98965.40
2019-05-19T14:39:40.996Z,98964.02
2019-05-19T14:42:46.293Z,98967.73
2019-05-19T14:45:49.945Z,98967.48
2019-05-19T14:48:53.600Z,98967.01
2019-05-19T14:51:57.217Z,98959.13
2019-05-19T14:55:00.864Z,98956.11
2019-05-19T14:58:04.482Z,98958.17
2019-05-19T15:01:08.150Z,98956.89
2019-05-19T15:04:11.749Z,98946.12
2019-05-19T15:07:15.432Z,98949.92
2019-05-19T15:10:20.036Z,98944.05
2019-05-19T15:13:23.722Z,98946.83
2019-05-19T15:16:27.382Z,98947.82
2019-05-19T15:19:31.019Z,98940.95
2019-05-19T15:22:34.714Z,98951.74
2019-05-19T15:25:38.370Z,98941.50
2019-05-19T15:28:41.994Z,98934.45
2019-05-19T15:31:48.867Z,98936.00
2019-05-19T15:34:52.513Z,98935.98
2019-05-19T15:37:56.124Z,98929.27
2019-05-19T15:40:59.765Z,98928.08
2019-05-19T15:44:03.504Z,98926.75
2019-05-19T15:47:07.190Z,98921.80
2019-05-19T15:50:11.256Z,98923.88
2019-05-19T15:53:14.952Z,98923.78
2019-05-19T15:56:18.617Z,98915.91
2019-05-19T15:59:22.307Z,98914.20
2019-05-19T16:02:25.939Z,98907.12
2019-05-19T16:05:29.625Z,98904.98
2019-05-19T16:08:33.289Z,98900.48
2019-05-19T16:11:36.969Z,98903.20
2019-05-19T16:14:40.786Z,98899.19
2019-05-19T16:17:44.536Z,98897.20
2019-05-19T16:20:48.185Z,98886.57
2019-05-19T16:23:51.956Z,98894.08
2019-05-19T16:26:55.665Z,98892.14
2019-05-19T16:29:59.370Z,98892.20
2019-05-19T16:33:03.023Z,98896.64
2019-05-19T16:36:08.026Z,98897.61
2019-05-19T16:39:11.767Z,98899.91
2019-05-19T16:42:15.374Z,98901.03
2019-05-19T16:45:19.591Z,98891.04
2019-05-19T16:48:23.548Z,98886.06
2019-05-19T16:51:27.307Z,98893.08
2019-05-19T16:54:47.699Z,98884.18
2019-05-19T16:57:51.364Z,98882.36
2019-05-19T17:00:54.994Z,98878.29
2019-05-19T17:03:58.813Z,98883.69
2019-05-19T17:07:03.060Z,98881.39
2019-05-19T17:10:09.222Z,98886.52
2019-05-19T17:13:12.870Z,98885.78
2019-05-19T17:16:16.469Z,98885.34
2019-05-19T17:19:20.125Z,98881.33
2019-05-19T17:22:23.776Z,98879.20
2019-05-19T17:25:27.511Z,98882.38
2019-05-19T17:28:31.155Z,98880.73
2019-05-19T17:31:34.770Z,98887.36
2019-05-19T17:34:38.451Z,98892.75
2019-05-19T17:37:42.032Z,98889.28
2019-05-19T17:40:45.686Z,98895.73
2019-05-19T17:43:49.302Z,98892.78
2019-05-19T17:46:53.001Z,98893.69
2019-05-19T17:49:56.596Z,98890.21
2019-05-19T17:53:00.431Z,98898.71
2019-05-19T17:56:04.497Z,98899.11
2019-05-19T17:59:16.165Z,98903.20
2019-05-19T18:02:13.614Z,98905.30
2019-05-19T18:05:17.334Z,98904.98
2019-05-19T18:08:20.959Z,98902.55
2019-05-19T18:11:24.612Z,98902.19
2019-05-19T18:14:28.270Z,98897.81
2019-05-19T18:17:31.943Z,98905.16
2019-05-19T18:20:35.610Z,98896.52
2019-05-19T18:23:39.244Z,98902.20
2019-05-19T18:26:42.873Z,98900.99
2019-05-19T18:29:46.525Z,98894.69
2019-05-19T18:32:50.187Z,98901.18
2019-05-19T18:35:53.838Z,98898.90
2019-05-19T18:38:57.497Z,98905.47
2019-05-19T18:42:01.111Z,98898.09
2019-05-19T18:45:06.012Z,98900.62
2019-05-19T18:48:09.744Z,98902.77
2019-05-19T18:51:13.358Z,98901.68
2019-05-19T18:54:17.022Z,98902.24
2019-05-19T18:57:20.652Z,98901.70
2019-05-19T19:00:35.317Z,98904.23
2019-05-19T19:03:39.022Z,98903.99
2019-05-19T19:06:42.741Z,98906.81
2019-05-19T19:09:46.466Z,98913.94
2019-05-19T19:12:51.743Z,98917.75
2019-05-19T19:15:58.026Z,98915.00
2019-05-19T19:19:01.716Z,98910.82
2019-05-19T19:22:07.859Z,98922.81
2019-05-19T19:25:12.476Z,98920.83
2019-05-19T19:28:16.227Z,98930.67
2019-05-19T19:31:19.911Z,98932.25
2019-05-19T19:34:23.592Z,98934.37
2019-05-19T19:37:27.297Z,98927.23
2019-05-19T19:40:31.839Z,98936.91
2019-05-19T19:43:35.465Z,98936.14
2019-05-19T19:46:39.134Z,98932.50
2019-05-19T19:49:42.804Z,98938.97
2019-05-19T19:52:46.435Z,98939.06
2019-05-19T19:55:50.203Z,98935.80
2019-05-19T19:58:54.767Z,98930.62
2019-05-19T20:01:58.451Z,98934.55
2019-05-19T20:05:02.129Z,98932.11
2019-05-19T20:08:06.841Z,98922.98
2019-05-19T20:11:10.457Z,98929.34
2019-05-19T20:14:14.182Z,98928.14
2019-05-19T20:17:17.806Z,98929.39
2019-05-19T20:20:24.106Z,98933.69
2019-05-19T20:23:26.849Z,98926.08
2019-05-19T20:26:30.526Z,98930.62
2019-05-19T20:29:34.178Z,98924.52
2019-05-19T20:32:37.848Z,98931.06
2019-05-19T20:35:44.304Z,98922.06
2019-05-19T20:38:49.577Z,98928.36
2019-05-19T20:41:55.116Z,98927.58
2019-05-19T20:45:00.290Z,98925.73
2019-05-19T20:48:10.574Z,98927.98
2019-05-19T20:51:15.780Z,98924.70
2019-05-19T20:54:19.443Z,98921.80
2019-05-19T20:57:23.084Z,98930.67
2019-05-19T21:00:28.694Z,98923.34
2019-05-19T21:03:32.298Z,98926.05
2019-05-19T21:06:35.962Z,98931.05
2019-05-19T21:09:39.617Z,98928.41
2019-05-19T21:12:46.150Z,98926.76
2019-05-19T21:15:51.473Z,98926.02
2019-05-19T21:18:55.175Z,98925.25
2019-05-19T21:22:01.188Z,98921.94
2019-05-19T21:25:06.762Z,98919.50
2019-05-19T21:28:10.408Z,98929.14
2019-05-19T21:31:14.106Z,98929.73
2019-05-19T21:34:17.752Z,98922.84
2019-05-19T21:37:21.406Z,98926.73
2019-05-19T21:40:25.047Z,98919.31
2019-05-19T21:43:28.701Z,98919.06
2019-05-19T21:46:32.349Z,98924.29
2019-05-19T21:49:36.009Z,98927.91
2019-05-19T21:52:43.354Z,98927.10
2019-05-19T21:55:46.964Z,98930.70
2019-05-19T21:58:50.690Z,98926.84
2019-05-19T22:01:54.627Z,98924.93
2019-05-19T22:05:01.410Z,98922.76
2019-05-19T22:08:08.152Z,98920.26
2019-05-19T22:11:11.801Z,98920.84
2019-05-19T22:14:15.429Z,98922.78
2019-05-19T22:17:19.114Z,98918.11
2019-05-19T22:20:22.774Z,98922.81
2019-05-19T22:23:26.447Z,98931.36
2019-05-19T22:26:31.763Z,98933.55
2019-05-19T22:29:35.403Z,98930.27
2019-05-19T22:32:39.047Z,98933.86
2019-05-19T22:35:42.690Z,98932.47
2019-05-19T22:38:46.426Z,98927.52
2019-05-19T22:41:50.172Z,98926.95
2019-05-19T22:44:53.886Z,98931.09
2019-05-19T22:47:57.600Z,98917.03
2019-05-19T22:51:01.315Z,98914.26
2019-05-19T22:54:05.041Z,98913.42
2019-05-19T22:57:08.692Z,98891.62
2019-05-19T23:00:13.869Z,98892.75
2019-05-19T23:03:17.540Z,98897.44
2019-05-19T23:06:21.229Z,98901.02
2019-05-19T23:09:24.958Z,98904.33
2019-05-19T23:12:28.600Z,98907.94
2019-05-19T23:15:34.803Z,98910.11
2019-05-19T23:18:38.895Z,98904.36
2019-05-19T23:21:44.085Z,98902.17
2019-05-19T23:24:49.198Z,98901.91
2019-05-19T23:27:54.450Z,98892.83
2019-05-19T23:30:58.101Z,98898.64
2019-05-19T23:34:03.811Z,98903.58
2019-05-19T23:37:16.053Z,98910.44
2019-05-19T23:40:18.856Z,98913.48
2019-05-19T23:43:21.609Z,98916.50
2019-05-19T23:46:25.373Z,98914.31
2019-05-19T23:49:30.911Z,98916.81
2019-05-19T23:52:37.255Z,98909.66
2019-05-19T23:55:43.901Z,98907.47
2019-05-19T23:58:47.568Z,98905.52
